Bismarck, ND (58501)

4:29 PM CDT on July 01, 2015 (GMT -0500)
Centerville Lane | | Change Station
CLOSE
Current Station
Personal Weather Station
Location: Bismarck, ND
Elevation: 1811 ft
Nearby Weather Stations

Elev 1811 ft 46.86 °N, 100.75 °W | Updated 4 seconds ago

Overcast
Overcast
80.6 °F
Feels Like 82 °F
N
1.6
Wind Variable Wind from WNW
Gusts 1.6 mph

Today
High -- | Low -- °F
--% Chance of Precip.
Yesterday
High -- | Low -- °F
Precip. -- in
5:52 AM 9:40 PM
Full, 100% visible
Pressure 29.94 in
Visibility 9.0 miles
Clouds Mostly Cloudy 3500 ft
Overcast 4400 ft
Heat Index 82 °F
Dew Point 63 °F
Humidity 55%
Rainfall 0.00 in
Snow Depth Not available.
UV 3 out of 12
Pollen 2.90 out of 12
Air Quality Not available.
Flu Activity Not available.
METAR KBIS 012052Z AUTO 12005KT 9SM BKN035 OVC044 24/18 A2995 RMK AO2 SLP138 T02440178 58001

More Conditions Fewer Conditions

Pressure 29.94 in
Visibility 9.0 miles
Clouds Mostly Cloudy 3500 ft
Overcast 4400 ft
Heat Index 82 °F
Dew Point 63 °F
Humidity 55%
Rainfall 0.00 in
Snow Depth Not available.
UV 3 out of 12
Pollen 2.90 out of 12
Air Quality Not available.
Flu Activity Not available.
METAR KBIS 012052Z AUTO 12005KT 9SM BKN035 OVC044 24/18 A2995 RMK AO2 SLP138 T02440178 58001

More Conditions Fewer Conditions

10-Day Weather Forecast

×

Almanac

Astronomy

Jul. 01, 2015 Rise Set
Actual Time
Civil Twilight
Nautical Twilight
Astronomical Twilight
Moon
Length of Visible Light
Length of Day
Tomorrow will be .
, % of the Moon is Illuminated

Today's Extremes

State Highs State Lows

Community

WunderPhotos

Upload Photos

1,834,287 photos uploaded!

WunderBlogs® & News

Nearby

Air Quality

  Air Quality AQ Index Pollutant
Not available.

Snow Depth

Station Depth Elevation

Earthquake Activity

City Distance Mag. Time & Date
Minimum magnitude displayed is 2.5.

Coastal Water Temperatures

Place Temperature

Stations

Nearby Weather Stations

Station Location Temp. Windchill Dew Point Humidity Wind Precip. Elev Updated Type